Time;durP1;ratioP1;P1;durP2;ratioP2;P2;SDS_P1;SDS_P2;PMS_P1;PMS_P2;Temp;Humidity;BMP_temperature;BMP_pressure;BME280_temperature;BME280_humidity;BME280_pressure;Samples;Min_cycle;Max_cycle;Signal;HPM_P1;HPM_P2
2022/05/03 00:00:02;;;;;;;;;;;17.10;99.90;;;;;;5069287;28;20302;-75
2022/05/03 00:02:35;;;;;;;;;;;17.00;99.90;;;;;;5068467;28;20145;-76
2022/05/03 00:05:04;;;;;;;;;;;17.10;99.90;;;;;;5070082;28;19908;-74
2022/05/03 00:07:39;;;;;;;;;;;17.20;99.90;;;;;;5066710;28;19920;-76
2022/05/03 00:10:06;;;;;;;;;;;17.20;99.90;;;;;;5068567;28;19908;-76
2022/05/03 00:12:42;;;;;;;;;;;17.20;99.90;;;;;;5074141;28;19920;-76
2022/05/03 00:15:08;;;;;;;;;;;17.20;99.90;;;;;;5072081;28;19995;-76
2022/05/03 00:17:34;;;;;;;;;;;17.20;99.90;;;;;;5071234;28;19912;-76
2022/05/03 00:20:00;;;;;;;;;;;17.20;99.90;;;;;;5071606;28;19962;-76
2022/05/03 00:22:27;;;;;;;;;;;17.20;99.90;;;;;;5071459;28;19923;-75
2022/05/03 00:24:54;;;;;;;;;;;17.20;99.90;;;;;;5069929;28;19917;-75
2022/05/03 00:27:23;;;;;;;;;;;17.20;99.90;;;;;;5076147;28;20015;-75
2022/05/03 00:29:49;;;;;;;;;;;17.20;99.90;;;;;;5069163;28;19924;-77
2022/05/03 00:32:15;;;;;;;;;;;17.10;99.90;;;;;;5074642;28;19913;-76
2022/05/03 00:34:41;;;;;;;;;;;17.10;99.90;;;;;;5072522;28;19919;-76
2022/05/03 00:37:08;;;;;;;;;;;17.00;99.90;;;;;;5070578;28;19912;-77
2022/05/03 00:39:34;;;;;;;;;;;17.10;99.90;;;;;;5070314;28;19912;-77
2022/05/03 00:42:11;;;;;;;;;;;17.10;99.90;;;;;;5069818;28;20311;-77
2022/05/03 00:44:58;;;;;;;;;;;17.10;99.90;;;;;;5086770;28;20293;-77
2022/05/03 00:47:39;;;;;;;;;;;17.10;99.90;;;;;;5074652;28;20259;-76
2022/05/03 00:50:05;;;;;;;;;;;17.00;99.90;;;;;;5060529;28;21092;-73
2022/05/03 00:52:36;;;;;;;;;;;16.90;99.90;;;;;;5061614;28;19916;-76
2022/05/03 00:55:01;;;;;;;;;;;16.90;99.90;;;;;;5074335;28;19916;-77
2022/05/03 00:57:37;;;;;;;;;;;16.90;99.90;;;;;;5072249;28;19912;-75
2022/05/03 01:00:10;;;;;;;;;;;17.00;99.90;;;;;;5071872;28;19917;-76
2022/05/03 01:02:54;;;;;;;;;;;16.90;99.90;;;;;;5072081;28;19920;-76
2022/05/03 01:05:25;;;;;;;;;;;16.80;99.90;;;;;;5070819;28;19912;-75
2022/05/03 01:07:50;;;;;;;;;;;16.70;99.90;;;;;;5069651;28;19922;-76
2022/05/03 01:10:42;;;;;;;;;;;16.70;99.90;;;;;;5068228;28;19917;-76
2022/05/03 01:13:11;;;;;;;;;;;16.70;99.90;;;;;;5080146;28;20681;-75
2022/05/03 01:15:46;;;;;;;;;;;16.70;99.90;;;;;;5068795;28;19912;-75
2022/05/03 01:18:18;;;;;;;;;;;16.80;99.90;;;;;;5067237;28;19912;-72
2022/05/03 01:21:02;;;;;;;;;;;16.80;99.90;;;;;;5068247;28;19912;-75
2022/05/03 01:23:46;;;;;;;;;;;16.80;99.90;;;;;;5067935;28;19961;-77
2022/05/03 01:26:12;;;;;;;;;;;16.70;99.90;;;;;;5068416;28;19916;-76
2022/05/03 01:28:44;;;;;;;;;;;16.70;99.90;;;;;;5071502;28;19913;-76
2022/05/03 01:31:10;;;;;;;;;;;16.70;99.90;;;;;;5071543;28;20402;-77
2022/05/03 01:33:41;;;;;;;;;;;16.80;99.90;;;;;;5067739;28;19920;-76
2022/05/03 01:36:08;;;;;;;;;;;16.70;99.90;;;;;;5070162;28;19923;-75
2022/05/03 01:38:38;;;;;;;;;;;16.70;99.90;;;;;;5067312;28;20413;-74
2022/05/03 01:41:10;;;;;;;;;;;16.70;99.90;;;;;;5066946;28;20014;-76
2022/05/03 01:43:39;;;;;;;;;;;16.70;99.90;;;;;;5069863;28;19916;-76
2022/05/03 01:46:07;;;;;;;;;;;16.60;99.90;;;;;;5071159;28;19920;-76
2022/05/03 01:51:31;;;;;;;;;;;16.60;99.90;;;;;;5071456;28;19965;-75
2022/05/03 01:54:04;;;;;;;;;;;16.60;99.90;;;;;;5073470;28;19935;-77
2022/05/03 01:56:30;;;;;;;;;;;16.50;99.90;;;;;;5066219;28;20516;-75
2022/05/03 01:59:10;;;;;;;;;;;16.50;99.90;;;;;;5069460;28;19924;-75
2022/05/03 02:01:39;;;;;;;;;;;16.50;99.90;;;;;;5071598;28;20050;-75
2022/05/03 02:04:08;;;;;;;;;;;16.60;99.90;;;;;;5068657;28;20001;-76
2022/05/03 02:07:06;;;;;;;;;;;16.60;99.90;;;;;;5069466;28;19916;-76
2022/05/03 02:09:50;;;;;;;;;;;16.60;99.90;;;;;;5048518;28;20359;-74
2022/05/03 02:12:18;;;;;;;;;;;16.60;99.90;;;;;;5072309;28;19916;-76
2022/05/03 02:14:47;;;;;;;;;;;16.60;99.90;;;;;;5069243;28;19913;-75
2022/05/03 02:17:18;;;;;;;;;;;16.50;99.90;;;;;;5071191;28;20005;-73
2022/05/03 02:19:57;;;;;;;;;;;16.60;99.90;;;;;;5068936;28;19935;-76
2022/05/03 02:22:38;;;;;;;;;;;16.50;99.90;;;;;;5072257;28;20382;-74
2022/05/03 02:25:17;;;;;;;;;;;16.50;99.90;;;;;;5077315;28;19912;-75
2022/05/03 02:27:47;;;;;;;;;;;16.40;99.90;;;;;;5073959;28;19923;-76
2022/05/03 02:30:14;;;;;;;;;;;16.40;99.90;;;;;;5074092;28;19920;-75
2022/05/03 02:33:00;;;;;;;;;;;16.40;99.90;;;;;;5071673;28;19920;-74
2022/05/03 02:35:32;;;;;;;;;;;16.40;99.90;;;;;;5070547;28;20354;-75
2022/05/03 02:38:01;;;;;;;;;;;16.40;99.90;;;;;;5069519;28;20576;-75
2022/05/03 02:40:30;;;;;;;;;;;16.40;99.90;;;;;;5069075;28;19912;-77
2022/05/03 02:42:56;;;;;;;;;;;16.30;99.90;;;;;;5072091;28;20016;-74
2022/05/03 02:45:22;;;;;;;;;;;16.30;99.90;;;;;;5068064;28;20011;-75
2022/05/03 02:47:57;;;;;;;;;;;16.30;99.90;;;;;;5067520;28;20019;-74
2022/05/03 02:50:35;;;;;;;;;;;16.20;99.90;;;;;;5067557;28;19912;-74
2022/05/03 02:53:21;;;;;;;;;;;16.20;99.90;;;;;;5070837;28;20393;-75
2022/05/03 02:55:54;;;;;;;;;;;16.20;99.90;;;;;;5062048;28;19919;-74
2022/05/03 02:58:38;;;;;;;;;;;16.10;99.90;;;;;;5069988;28;19912;-76
2022/05/03 03:04:05;;;;;;;;;;;16.10;99.90;;;;;;5065584;28;19980;-74
2022/05/03 03:06:33;;;;;;;;;;;16.10;99.90;;;;;;5091168;28;19924;-73
2022/05/03 03:08:59;;;;;;;;;;;16.00;99.90;;;;;;5089272;28;20007;-72
2022/05/03 03:11:52;;;;;;;;;;;16.00;99.90;;;;;;5089695;28;19936;-73
2022/05/03 03:14:35;;;;;;;;;;;15.90;99.90;;;;;;5089322;28;19896;-73
2022/05/03 03:17:05;;;;;;;;;;;16.00;99.90;;;;;;5088714;28;20007;-73
2022/05/03 03:19:37;;;;;;;;;;;15.90;99.90;;;;;;5087871;28;19912;-74
2022/05/03 03:22:04;;;;;;;;;;;15.90;99.90;;;;;;5068992;28;19920;-75
2022/05/03 03:24:32;;;;;;;;;;;15.80;99.90;;;;;;5075378;28;20022;-76
2022/05/03 03:27:00;;;;;;;;;;;15.70;99.90;;;;;;5069728;28;20010;-76
2022/05/03 03:29:27;;;;;;;;;;;15.60;99.90;;;;;;5071710;28;20425;-76
2022/05/03 03:31:52;;;;;;;;;;;15.70;99.90;;;;;;5071300;28;19920;-75
2022/05/03 03:34:20;;;;;;;;;;;15.60;99.90;;;;;;5073514;28;19934;-75
2022/05/03 03:36:48;;;;;;;;;;;15.60;99.90;;;;;;5073316;28;19916;-77
2022/05/03 03:39:14;;;;;;;;;;;15.60;99.90;;;;;;5075221;28;20421;-75
2022/05/03 03:41:40;;;;;;;;;;;15.50;99.90;;;;;;5088880;28;19959;-75
2022/05/03 03:44:05;;;;;;;;;;;15.50;99.90;;;;;;5072980;28;20329;-74
2022/05/03 03:46:32;;;;;;;;;;;15.40;99.90;;;;;;5070149;28;19999;-76
2022/05/03 03:48:58;;;;;;;;;;;15.30;99.90;;;;;;5076266;28;19909;-75
2022/05/03 03:51:24;;;;;;;;;;;15.30;99.90;;;;;;5071974;28;20332;-74
2022/05/03 03:53:50;;;;;;;;;;;15.40;99.90;;;;;;5076113;28;19913;-75
2022/05/03 03:56:16;;;;;;;;;;;15.40;99.90;;;;;;5071360;28;20606;-74
2022/05/03 03:58:41;;;;;;;;;;;15.40;99.90;;;;;;5069439;28;19912;-75
2022/05/03 04:01:09;;;;;;;;;;;15.50;99.90;;;;;;5074701;28;19968;-76
2022/05/03 04:03:37;;;;;;;;;;;15.40;99.90;;;;;;5072983;28;19919;-75
2022/05/03 04:06:03;;;;;;;;;;;15.50;99.90;;;;;;5074091;28;20345;-74
2022/05/03 04:08:29;;;;;;;;;;;15.40;99.90;;;;;;5076338;28;20003;-74
2022/05/03 04:10:55;;;;;;;;;;;15.50;99.90;;;;;;5071285;28;20022;-75
2022/05/03 04:13:23;;;;;;;;;;;15.50;99.90;;;;;;5073900;28;20041;-75
2022/05/03 04:15:50;;;;;;;;;;;15.50;99.90;;;;;;5076367;28;20018;-75
2022/05/03 04:18:16;;;;;;;;;;;15.50;99.90;;;;;;5072669;28;19916;-76
2022/05/03 04:20:41;;;;;;;;;;;15.50;99.90;;;;;;5072787;28;19919;-75
2022/05/03 04:23:09;;;;;;;;;;;15.50;99.90;;;;;;5072546;28;19913;-77
2022/05/03 04:25:35;;;;;;;;;;;15.60;99.90;;;;;;5078017;28;19927;-76
2022/05/03 04:28:01;;;;;;;;;;;15.60;99.90;;;;;;5076618;28;19916;-76
2022/05/03 04:30:26;;;;;;;;;;;15.60;99.90;;;;;;5074077;28;19923;-75
2022/05/03 04:32:52;;;;;;;;;;;15.60;99.90;;;;;;5072511;28;20014;-75
2022/05/03 04:35:17;;;;;;;;;;;15.60;99.90;;;;;;5075967;28;20007;-76
2022/05/03 04:37:43;;;;;;;;;;;15.60;99.90;;;;;;5071417;28;19917;-75
2022/05/03 04:40:09;;;;;;;;;;;15.60;99.90;;;;;;5073987;28;19916;-76
2022/05/03 04:42:35;;;;;;;;;;;15.70;99.90;;;;;;5068987;28;20273;-76
2022/05/03 04:45:01;;;;;;;;;;;15.70;99.90;;;;;;5071658;28;19919;-73
2022/05/03 04:47:27;;;;;;;;;;;15.80;99.90;;;;;;5073382;28;20396;-76
2022/05/03 04:49:52;;;;;;;;;;;15.80;99.90;;;;;;5073074;28;19944;-77
2022/05/03 04:52:18;;;;;;;;;;;15.80;99.90;;;;;;5070738;28;19946;-76
2022/05/03 04:54:44;;;;;;;;;;;15.80;99.90;;;;;;5064283;28;19913;-75
2022/05/03 04:57:09;;;;;;;;;;;15.90;99.90;;;;;;5072465;28;19909;-76
2022/05/03 04:59:36;;;;;;;;;;;15.90;99.90;;;;;;5078799;28;19916;-76
2022/05/03 05:02:02;;;;;;;;;;;15.90;99.90;;;;;;5075356;28;19908;-76
2022/05/03 05:04:27;;;;;;;;;;;15.80;99.90;;;;;;5070286;28;19912;-75
2022/05/03 05:06:53;;;;;;;;;;;15.80;99.90;;;;;;5073300;28;20550;-77
2022/05/03 05:09:19;;;;;;;;;;;15.80;99.90;;;;;;5068746;28;19913;-75
2022/05/03 05:11:44;;;;;;;;;;;15.90;99.90;;;;;;5071336;28;19915;-74
2022/05/03 05:14:10;;;;;;;;;;;15.90;99.90;;;;;;5073059;28;19965;-76
2022/05/03 05:16:36;;;;;;;;;;;15.90;99.90;;;;;;5072457;28;19923;-77
2022/05/03 05:19:02;;;;;;;;;;;15.90;99.90;;;;;;5073425;28;19965;-77
2022/05/03 05:21:28;;;;;;;;;;;15.90;99.90;;;;;;5069871;28;19966;-77
2022/05/03 05:23:53;;;;;;;;;;;15.90;99.90;;;;;;5068947;28;19958;-76
2022/05/03 05:26:19;;;;;;;;;;;15.90;99.90;;;;;;5073484;28;19912;-77
2022/05/03 05:28:44;;;;;;;;;;;16.00;99.90;;;;;;5069551;28;20011;-76
2022/05/03 05:31:10;;;;;;;;;;;16.00;99.90;;;;;;5073271;28;19919;-76
2022/05/03 05:33:36;;;;;;;;;;;16.10;99.90;;;;;;5074262;28;20040;-77
2022/05/03 05:36:01;;;;;;;;;;;16.20;99.90;;;;;;5067845;28;19913;-76
2022/05/03 05:38:27;;;;;;;;;;;16.30;99.90;;;;;;5071519;28;19916;-77
2022/05/03 05:40:52;;;;;;;;;;;16.30;99.90;;;;;;5071034;28;20397;-78
2022/05/03 05:43:18;;;;;;;;;;;16.30;99.90;;;;;;5068737;28;19987;-72
2022/05/03 05:45:44;;;;;;;;;;;16.30;99.90;;;;;;5070805;28;19919;-72
2022/05/03 05:48:10;;;;;;;;;;;16.30;99.90;;;;;;5068933;28;19916;-72
2022/05/03 05:50:36;;;;;;;;;;;16.30;99.90;;;;;;5069458;28;19938;-69
2022/05/03 05:55:45;;;;;;;;;;;16.50;99.90;;;;;;5071653;28;19919;-72
2022/05/03 05:58:11;;;;;;;;;;;16.60;99.90;;;;;;5069853;28;19999;-71
2022/05/03 06:00:36;;;;;;;;;;;16.70;99.90;;;;;;5071206;28;19913;-71
2022/05/03 06:03:02;;;;;;;;;;;16.80;99.90;;;;;;5070815;28;19912;-71
2022/05/03 06:05:30;;;;;;;;;;;16.90;99.90;;;;;;5073356;28;19912;-71
2022/05/03 06:07:55;;;;;;;;;;;17.00;99.90;;;;;;5069678;28;19930;-71
2022/05/03 06:10:21;;;;;;;;;;;17.10;99.90;;;;;;5071372;28;19917;-71
2022/05/03 06:12:47;;;;;;;;;;;17.30;99.90;;;;;;5072198;28;19912;-71
2022/05/03 06:15:13;;;;;;;;;;;17.30;99.90;;;;;;5072752;28;19908;-70
2022/05/03 06:17:40;;;;;;;;;;;17.40;99.90;;;;;;5071398;28;20379;-70
2022/05/03 06:20:07;;;;;;;;;;;17.40;99.90;;;;;;5070264;28;19917;-72
2022/05/03 06:22:33;;;;;;;;;;;17.40;99.90;;;;;;5069335;28;19916;-70
2022/05/03 06:24:59;;;;;;;;;;;17.40;99.90;;;;;;5069936;28;19973;-70
2022/05/03 06:27:24;;;;;;;;;;;17.40;99.90;;;;;;5070179;28;19923;-71
2022/05/03 06:29:50;;;;;;;;;;;17.50;99.90;;;;;;5070929;28;19943;-71
2022/05/03 06:32:16;;;;;;;;;;;17.60;99.90;;;;;;5071726;28;19992;-71
2022/05/03 06:34:41;;;;;;;;;;;17.70;99.90;;;;;;5068796;28;19912;-70
2022/05/03 06:37:07;;;;;;;;;;;17.80;99.90;;;;;;5068438;28;19912;-69
2022/05/03 06:39:34;;;;;;;;;;;17.90;99.90;;;;;;5069208;28;19916;-70
2022/05/03 06:42:02;;;;;;;;;;;18.10;99.90;;;;;;5068076;28;19913;-69
2022/05/03 06:44:27;;;;;;;;;;;18.20;99.90;;;;;;5069485;28;20272;-69
2022/05/03 06:46:53;;;;;;;;;;;18.20;99.90;;;;;;5071349;28;19916;-71
2022/05/03 06:49:20;;;;;;;;;;;18.30;99.90;;;;;;5071974;28;20042;-69
2022/05/03 06:51:45;;;;;;;;;;;18.30;99.90;;;;;;5070034;28;19919;-69
2022/05/03 06:54:11;;;;;;;;;;;18.40;99.90;;;;;;5070235;28;19913;-67
2022/05/03 06:56:36;;;;;;;;;;;18.40;99.90;;;;;;5071373;28;19912;-71
2022/05/03 06:59:03;;;;;;;;;;;18.40;99.90;;;;;;5070757;28;20327;-71
2022/05/03 07:01:29;;;;;;;;;;;18.40;99.90;;;;;;5074803;28;19919;-70
2022/05/03 07:03:54;;;;;;;;;;;18.50;99.90;;;;;;5073320;28;19987;-70
2022/05/03 07:06:21;;;;;;;;;;;18.50;99.90;;;;;;5071932;28;19913;-69
2022/05/03 07:08:47;;;;;;;;;;;18.50;99.90;;;;;;5076607;28;19916;-70
2022/05/03 07:11:12;;;;;;;;;;;18.40;99.90;;;;;;5075231;28;20392;-70
2022/05/03 07:13:38;;;;;;;;;;;18.50;99.90;;;;;;5072471;28;19909;-70
2022/05/03 07:16:04;;;;;;;;;;;18.60;99.90;;;;;;5071262;28;19921;-70
2022/05/03 07:23:58;;;;;;;;;;;18.80;99.90;;;;;;5074029;28;19924;-71
2022/05/03 07:26:23;;;;;;;;;;;18.90;99.90;;;;;;5072230;28;19916;-70
2022/05/03 07:28:49;;;;;;;;;;;19.00;99.90;;;;;;5072986;28;20396;-69
2022/05/03 07:31:15;;;;;;;;;;;19.10;99.90;;;;;;5072975;28;19908;-69
2022/05/03 07:33:41;;;;;;;;;;;19.20;99.90;;;;;;5072513;28;19991;-70
2022/05/03 07:36:06;;;;;;;;;;;19.30;99.90;;;;;;5074611;28;20378;-70
2022/05/03 07:38:32;;;;;;;;;;;19.40;99.90;;;;;;5077440;28;19935;-69
2022/05/03 07:40:57;;;;;;;;;;;19.50;99.90;;;;;;5069469;28;19974;-69
2022/05/03 07:43:23;;;;;;;;;;;19.60;99.90;;;;;;5071612;28;20004;-70
2022/05/03 07:45:49;;;;;;;;;;;19.70;99.90;;;;;;5073872;28;19952;-69
2022/05/03 07:48:15;;;;;;;;;;;19.80;99.90;;;;;;5074175;28;19913;-69
2022/05/03 07:50:40;;;;;;;;;;;19.90;99.90;;;;;;5073706;28;19931;-69
2022/05/03 07:53:06;;;;;;;;;;;20.00;99.90;;;;;;5073113;28;20326;-70
2022/05/03 07:55:32;;;;;;;;;;;20.10;99.90;;;;;;5071913;28;19932;-69
2022/05/03 07:57:57;;;;;;;;;;;20.20;99.90;;;;;;5067081;28;19923;-69
2022/05/03 08:00:23;;;;;;;;;;;20.30;99.90;;;;;;5072129;28;19908;-70
2022/05/03 08:02:49;;;;;;;;;;;20.50;99.90;;;;;;5070671;28;19912;-68
2022/05/03 08:05:15;;;;;;;;;;;20.60;99.90;;;;;;5073865;28;19914;-69
2022/05/03 08:07:41;;;;;;;;;;;20.70;99.90;;;;;;5072724;28;19920;-72
2022/05/03 08:10:07;;;;;;;;;;;20.80;99.90;;;;;;5074643;28;19912;-71
2022/05/03 08:12:32;;;;;;;;;;;20.90;99.90;;;;;;5074929;28;20274;-70
2022/05/03 08:14:58;;;;;;;;;;;20.80;99.90;;;;;;5086988;28;19897;-69
2022/05/03 08:17:27;;;;;;;;;;;20.70;99.90;;;;;;5097745;28;19913;-69
2022/05/03 08:19:53;;;;;;;;;;;20.60;99.90;;;;;;5093525;28;19958;-67
2022/05/03 08:22:18;;;;;;;;;;;20.50;99.90;;;;;;5090081;28;19990;-69
2022/05/03 08:24:44;;;;;;;;;;;20.50;99.90;;;;;;5092012;28;19908;-70
2022/05/03 08:27:10;;;;;;;;;;;20.50;99.90;;;;;;5093960;28;19916;-68
2022/05/03 08:29:35;;;;;;;;;;;20.60;99.90;;;;;;5085814;28;19916;-70
2022/05/03 08:32:01;;;;;;;;;;;20.80;99.90;;;;;;5073026;28;20378;-69
2022/05/03 08:34:27;;;;;;;;;;;21.10;99.90;;;;;;5073511;28;20424;-70
2022/05/03 08:42:21;;;;;;;;;;;21.40;99.90;;;;;;5073672;28;19923;-69
2022/05/03 08:44:47;;;;;;;;;;;21.30;99.90;;;;;;5072636;28;19909;-68
2022/05/03 08:47:14;;;;;;;;;;;21.30;99.90;;;;;;5069419;28;19916;-66
2022/05/03 08:49:45;;;;;;;;;;;21.40;99.90;;;;;;5070648;28;19908;-68
2022/05/03 08:52:11;;;;;;;;;;;21.40;99.90;;;;;;5072260;28;19919;-68
2022/05/03 08:54:37;;;;;;;;;;;21.50;99.90;;;;;;5062615;28;20012;-67
2022/05/03 08:57:05;;;;;;;;;;;21.70;99.90;;;;;;5070591;28;19916;-71
2022/05/03 08:59:31;;;;;;;;;;;21.60;99.90;;;;;;5077969;28;20012;-71
2022/05/03 09:01:57;;;;;;;;;;;21.50;99.90;;;;;;5075099;28;19934;-68
2022/05/03 09:04:23;;;;;;;;;;;21.60;99.90;;;;;;5070115;28;19913;-69
2022/05/03 09:06:50;;;;;;;;;;;21.50;99.90;;;;;;5074271;28;19961;-68
2022/05/03 09:09:18;;;;;;;;;;;21.50;99.90;;;;;;5072392;28;19913;-68
2022/05/03 09:11:46;;;;;;;;;;;21.40;99.90;;;;;;5069763;28;20346;-68
2022/05/03 09:14:13;;;;;;;;;;;21.40;99.90;;;;;;5065459;28;20563;-67
2022/05/03 09:16:51;;;;;;;;;;;21.40;99.90;;;;;;5062964;28;19916;-68
2022/05/03 09:19:25;;;;;;;;;;;21.40;99.90;;;;;;5076423;28;20011;-70
2022/05/03 09:24:54;;;;;;;;;;;21.30;99.90;;;;;;5072166;28;19981;-70
2022/05/03 09:27:21;;;;;;;;;;;21.30;99.90;;;;;;5070391;28;19916;-70
2022/05/03 09:29:59;;;;;;;;;;;21.30;99.90;;;;;;5071847;28;19966;-72
2022/05/03 09:32:38;;;;;;;;;;;21.20;99.90;;;;;;5072767;28;20288;-70
2022/05/03 09:35:04;;;;;;;;;;;20.90;99.90;;;;;;5071220;28;19920;-69
2022/05/03 09:37:40;;;;;;;;;;;20.70;99.90;;;;;;5068968;28;20009;-69
2022/05/03 09:40:07;;;;;;;;;;;20.60;99.90;;;;;;5076735;28;19919;-69
2022/05/03 09:42:34;;;;;;;;;;;20.70;99.90;;;;;;5070163;28;20367;-68
2022/05/03 09:45:02;;;;;;;;;;;20.70;99.90;;;;;;5071027;28;19919;-71
2022/05/03 09:47:28;;;;;;;;;;;20.80;99.90;;;;;;5068969;28;20008;-69
2022/05/03 09:49:54;;;;;;;;;;;20.80;99.90;;;;;;5071021;28;20599;-71
2022/05/03 09:52:33;;;;;;;;;;;20.70;99.90;;;;;;5070445;28;20010;-70
2022/05/03 09:55:09;;;;;;;;;;;20.50;99.90;;;;;;5067492;28;20321;-70
2022/05/03 09:57:38;;;;;;;;;;;20.70;99.90;;;;;;5070276;28;19948;-67
2022/05/03 10:00:08;;;;;;;;;;;20.60;99.90;;;;;;5071213;28;19912;-71
2022/05/03 10:02:34;;;;;;;;;;;20.70;99.90;;;;;;5072825;28;19920;-71
2022/05/03 10:05:00;;;;;;;;;;;20.70;99.90;;;;;;5071355;28;19944;-70
2022/05/03 10:07:27;;;;;;;;;;;20.70;99.90;;;;;;5079249;28;19921;-70
2022/05/03 10:09:53;;;;;;;;;;;20.80;99.90;;;;;;5070952;28;20567;-71
2022/05/03 10:12:19;;;;;;;;;;;20.70;99.90;;;;;;5071197;28;19913;-70
2022/05/03 10:14:45;;;;;;;;;;;20.50;99.90;;;;;;5068825;28;19920;-71
2022/05/03 10:22:46;;;;;;;;;;;20.50;99.90;;;;;;5072359;28;20432;-70
2022/05/03 10:25:12;;;;;;;;;;;20.40;99.90;;;;;;5069558;28;19909;-69
2022/05/03 10:27:54;;;;;;;;;;;20.50;99.90;;;;;;5069377;28;19922;-69
2022/05/03 10:30:22;;;;;;;;;;;20.50;99.90;;;;;;5073403;28;19917;-71
2022/05/03 10:33:06;;;;;;;;;;;20.80;99.90;;;;;;5067965;28;19956;-69
2022/05/03 10:35:34;;;;;;;;;;;20.90;99.90;;;;;;5070707;28;19912;-66
2022/05/03 10:37:59;;;;;;;;;;;21.00;99.90;;;;;;5072746;28;19912;-72
2022/05/03 10:40:39;;;;;;;;;;;21.10;99.90;;;;;;5069370;28;20286;-70
2022/05/03 10:43:09;;;;;;;;;;;21.20;99.90;;;;;;5071763;28;20102;-70
2022/05/03 10:45:47;;;;;;;;;;;20.90;99.90;;;;;;5070529;28;19916;-73
2022/05/03 10:48:25;;;;;;;;;;;20.80;99.90;;;;;;5057252;28;19927;-69
2022/05/03 10:50:52;;;;;;;;;;;20.70;99.90;;;;;;5071240;28;19912;-69
2022/05/03 10:53:19;;;;;;;;;;;20.50;99.90;;;;;;5069447;28;19915;-68
2022/05/03 10:56:01;;;;;;;;;;;20.60;99.90;;;;;;5068387;28;19912;-69
2022/05/03 10:58:31;;;;;;;;;;;20.70;99.90;;;;;;5072605;28;19917;-69
2022/05/03 11:01:10;;;;;;;;;;;20.60;99.90;;;;;;5071205;28;19919;-70
2022/05/03 11:03:39;;;;;;;;;;;20.70;99.90;;;;;;5071471;28;20272;-70
2022/05/03 11:06:25;;;;;;;;;;;20.80;99.90;;;;;;5073094;28;19908;-70
2022/05/03 11:08:56;;;;;;;;;;;20.70;99.90;;;;;;5068417;28;19966;-70
2022/05/03 11:14:18;;;;;;;;;;;20.80;99.90;;;;;;5066739;28;19977;-68
2022/05/03 11:16:51;;;;;;;;;;;21.10;99.90;;;;;;5083541;28;19921;-68
2022/05/03 11:19:17;;;;;;;;;;;21.50;99.90;;;;;;5070270;28;19916;-71
2022/05/03 11:21:45;;;;;;;;;;;21.60;99.90;;;;;;5071749;28;20374;-69
2022/05/03 11:24:20;;;;;;;;;;;21.70;99.90;;;;;;5069610;28;19971;-72
2022/05/03 11:26:50;;;;;;;;;;;21.80;99.90;;;;;;5071403;28;19920;-70
2022/05/03 11:29:17;;;;;;;;;;;21.80;99.90;;;;;;5069135;28;19924;-70
2022/05/03 11:31:49;;;;;;;;;;;21.80;99.90;;;;;;5073286;28;19983;-70
2022/05/03 11:34:17;;;;;;;;;;;21.90;99.90;;;;;;5072650;28;19943;-70
2022/05/03 11:36:43;;;;;;;;;;;22.20;99.90;;;;;;5076520;28;19912;-71
2022/05/03 11:39:10;;;;;;;;;;;22.30;99.90;;;;;;5072760;28;20374;-71
2022/05/03 11:41:42;;;;;;;;;;;22.20;99.90;;;;;;5078907;28;20349;-72
2022/05/03 11:44:11;;;;;;;;;;;22.00;99.90;;;;;;5074895;28;20351;-75
2022/05/03 11:46:38;;;;;;;;;;;22.10;99.90;;;;;;5079561;28;20073;-71
2022/05/03 11:49:04;;;;;;;;;;;22.10;99.90;;;;;;5072127;28;19909;-71
2022/05/03 11:57:05;;;;;;;;;;;22.40;99.90;;;;;;5078182;28;19990;-71
2022/05/03 11:59:31;;;;;;;;;;;22.40;99.90;;;;;;5079684;28;19917;-71
2022/05/03 12:02:15;;;;;;;;;;;22.50;99.90;;;;;;5076532;28;20282;-70
2022/05/03 12:05:00;;;;;;;;;;;22.20;99.90;;;;;;5073315;28;19912;-69
2022/05/03 12:07:25;;;;;;;;;;;22.10;99.90;;;;;;5073143;28;19919;-70
2022/05/03 12:09:51;;;;;;;;;;;22.10;99.90;;;;;;5073564;28;20425;-69
2022/05/03 12:15:14;;;;;;;;;;;22.30;99.90;;;;;;5074121;28;20400;-69
2022/05/03 12:17:53;;;;;;;;;;;22.50;99.90;;;;;;5072596;28;19912;-68
2022/05/03 12:20:19;;;;;;;;;;;22.50;99.90;;;;;;5065361;28;19931;-69
2022/05/03 12:22:45;;;;;;;;;;;22.50;99.90;;;;;;5076601;28;20348;-71
2022/05/03 12:25:24;;;;;;;;;;;22.80;99.90;;;;;;5075382;28;20000;-70
2022/05/03 12:27:50;;;;;;;;;;;22.90;99.90;;;;;;5073730;28;19927;-71
2022/05/03 12:30:16;;;;;;;;;;;22.90;99.90;;;;;;5072363;28;19916;-71
2022/05/03 12:32:42;;;;;;;;;;;23.20;99.90;;;;;;5071081;28;19935;-70
2022/05/03 12:35:07;;;;;;;;;;;23.20;99.90;;;;;;5072191;28;19916;-70
2022/05/03 12:37:48;;;;;;;;;;;23.20;99.90;;;;;;5072572;28;19958;-70
2022/05/03 12:40:23;;;;;;;;;;;23.10;99.90;;;;;;5071422;28;19913;-71
2022/05/03 12:42:48;;;;;;;;;;;23.10;99.90;;;;;;5077902;28;19908;-72
2022/05/03 12:45:14;;;;;;;;;;;23.20;99.90;;;;;;5078520;28;19920;-71
2022/05/03 12:47:40;;;;;;;;;;;23.20;99.90;;;;;;5071302;28;19916;-68
2022/05/03 12:50:06;;;;;;;;;;;23.30;99.90;;;;;;5067355;28;20560;-67
2022/05/03 12:52:31;;;;;;;;;;;23.50;99.90;;;;;;5072733;28;19909;-68
2022/05/03 12:54:59;;;;;;;;;;;23.60;99.90;;;;;;5071831;28;20042;-70
2022/05/03 13:00:19;;;;;;;;;;;23.70;99.90;;;;;;5094415;28;20351;-71
2022/05/03 13:03:00;;;;;;;;;;;23.60;99.90;;;;;;5094803;28;19908;-70
2022/05/03 13:05:31;;;;;;;;;;;23.50;99.90;;;;;;5094765;28;19915;-69
2022/05/03 13:07:57;;;;;;;;;;;23.50;99.90;;;;;;5073576;28;19920;-70
2022/05/03 13:10:23;;;;;;;;;;;23.40;99.90;;;;;;5068418;28;20393;-70
2022/05/03 13:12:48;;;;;;;;;;;23.20;99.90;;;;;;5055295;28;19937;-68
2022/05/03 13:15:14;;;;;;;;;;;23.40;99.90;;;;;;5067695;28;20375;-70
2022/05/03 13:17:39;;;;;;;;;;;23.50;99.90;;;;;;5064276;28;19912;-68
2022/05/03 13:20:20;;;;;;;;;;;23.60;99.90;;;;;;5083183;28;20355;-69
2022/05/03 13:22:55;;;;;;;;;;;23.40;99.90;;;;;;5077795;28;19912;-70
2022/05/03 13:25:22;;;;;;;;;;;23.30;99.90;;;;;;5100819;28;19961;-71
2022/05/03 13:27:48;;;;;;;;;;;23.10;99.90;;;;;;5092787;28;20385;-70
2022/05/03 13:30:15;;;;;;;;;;;23.00;99.90;;;;;;5078145;28;19987;-69
2022/05/03 13:32:41;;;;;;;;;;;22.60;99.90;;;;;;5075391;28;19911;-70
2022/05/03 13:35:07;;;;;;;;;;;22.60;99.90;;;;;;5080085;28;19986;-70
2022/05/03 13:40:31;;;;;;;;;;;22.90;99.90;;;;;;5074025;28;19920;-71
2022/05/03 13:42:58;;;;;;;;;;;23.20;99.90;;;;;;5073604;28;19993;-71
2022/05/03 13:45:26;;;;;;;;;;;23.40;99.90;;;;;;5071812;28;20007;-71
2022/05/03 13:47:52;;;;;;;;;;;23.40;99.90;;;;;;5083926;28;20397;-71
2022/05/03 13:50:18;;;;;;;;;;;23.40;99.90;;;;;;5096775;28;19913;-71
2022/05/03 13:52:44;;;;;;;;;;;23.50;99.90;;;;;;5080583;28;19920;-71
2022/05/03 13:55:17;;;;;;;;;;;23.50;99.90;;;;;;5091815;28;19980;-71
2022/05/03 13:57:47;;;;;;;;;;;23.80;99.90;;;;;;5080072;28;20433;-70
2022/05/03 14:00:14;;;;;;;;;;;23.70;99.30;;;;;;5074542;28;19909;-69
2022/05/03 14:02:47;;;;;;;;;;;23.80;99.80;;;;;;5071639;28;19928;-71
2022/05/03 14:05:14;;;;;;;;;;;23.80;99.90;;;;;;5070005;28;19912;-73
2022/05/03 14:07:43;;;;;;;;;;;23.80;99.50;;;;;;5074769;28;19912;-71
2022/05/03 14:10:19;;;;;;;;;;;23.50;99.90;;;;;;5072988;28;19919;-70
2022/05/03 14:12:52;;;;;;;;;;;23.40;99.90;;;;;;5071493;28;20382;-70
2022/05/03 14:15:30;;;;;;;;;;;23.30;99.90;;;;;;5072151;28;19909;-70
2022/05/03 14:17:56;;;;;;;;;;;23.30;99.90;;;;;;5071239;28;19909;-71
2022/05/03 14:20:22;;;;;;;;;;;23.00;99.90;;;;;;5071719;28;19915;-71
2022/05/03 14:22:48;;;;;;;;;;;23.10;99.90;;;;;;5067804;28;19920;-70
2022/05/03 14:25:14;;;;;;;;;;;23.00;99.90;;;;;;5069977;28;20524;-69
2022/05/03 14:27:41;;;;;;;;;;;23.10;99.90;;;;;;5068825;28;19917;-70
2022/05/03 14:30:07;;;;;;;;;;;23.20;99.90;;;;;;5067696;28;19920;-69
2022/05/03 14:32:33;;;;;;;;;;;23.00;99.90;;;;;;5067524;28;20007;-68
2022/05/03 14:34:59;;;;;;;;;;;22.70;99.90;;;;;;5067333;28;19912;-71
2022/05/03 14:37:24;;;;;;;;;;;22.70;99.90;;;;;;5065736;28;19978;-71
2022/05/03 14:39:50;;;;;;;;;;;22.80;99.90;;;;;;5059488;28;19974;-72
2022/05/03 14:42:17;;;;;;;;;;;23.00;99.90;;;;;;5063067;28;19999;-71
2022/05/03 14:44:43;;;;;;;;;;;22.60;99.90;;;;;;5066656;28;20290;-71
2022/05/03 14:47:09;;;;;;;;;;;22.40;99.90;;;;;;5070548;28;19938;-70
2022/05/03 14:49:36;;;;;;;;;;;22.40;99.90;;;;;;5071158;28;19928;-70
2022/05/03 14:52:09;;;;;;;;;;;22.20;99.90;;;;;;5070818;28;20370;-71
2022/05/03 14:54:36;;;;;;;;;;;21.90;99.90;;;;;;5071029;28;20487;-71
2022/05/03 15:02:56;;;;;;;;;;;21.90;99.90;;;;;;5069956;28;20006;-69
2022/05/03 15:05:27;;;;;;;;;;;22.00;99.90;;;;;;5070622;28;19915;-70
2022/05/03 15:07:53;;;;;;;;;;;21.90;99.90;;;;;;5070310;28;19952;-70
2022/05/03 15:10:20;;;;;;;;;;;21.90;99.90;;;;;;5072281;28;19939;-69
2022/05/03 15:12:46;;;;;;;;;;;21.80;99.90;;;;;;5075641;28;19913;-71
2022/05/03 15:15:16;;;;;;;;;;;21.70;99.90;;;;;;5074587;28;19915;-72